Time;durP1;ratioP1;P1;durP2;ratioP2;P2;SDS_P1;SDS_P2;PMS_P1;PMS_P2;Temp;Humidity;BMP_temperature;BMP_pressure;BME280_temperature;BME280_humidity;BME280_pressure;Samples;Min_cycle;Max_cycle;Signal;HPM_P1;HPM_P2
2022/09/24 00:00:22;;;;;;;15.07;7.78;;;;;;;8.53;100.00;92819.31;2115021;27;20031;-68
2022/09/24 00:01:26;;;;;;;10.52;7.60;;;;;;;8.56;100.00;92815.81;2127209;27;20023;-67
2022/09/24 00:02:27;;;;;;;12.52;7.10;;;;;;;8.53;100.00;92817.38;2130396;27;20030;-68
2022/09/24 00:03:29;;;;;;;10.70;6.95;;;;;;;8.55;100.00;92822.28;2127079;27;20042;-70
2022/09/24 00:04:30;;;;;;;10.30;7.65;;;;;;;8.54;100.00;92818.13;2126925;27;20023;-68
2022/09/24 00:05:39;;;;;;;11.40;7.72;;;;;;;8.57;100.00;92814.66;2124522;27;20027;-69
2022/09/24 00:06:45;;;;;;;9.32;7.50;;;;;;;8.61;100.00;92818.00;2127202;27;20027;-68
2022/09/24 00:07:46;;;;;;;13.10;7.28;;;;;;;8.58;100.00;92810.81;2127155;27;20075;-67
2022/09/24 00:08:49;;;;;;;11.32;7.90;;;;;;;8.56;100.00;92811.25;2128998;27;20079;-68
2022/09/24 00:09:50;;;;;;;9.18;7.50;;;;;;;8.65;100.00;92815.25;2128297;27;20031;-68
2022/09/24 00:10:51;;;;;;;13.13;7.47;;;;;;;8.70;100.00;92812.88;2122790;27;20031;-68
2022/09/24 00:11:52;;;;;;;13.57;7.78;;;;;;;8.65;100.00;92810.69;2127345;27;20066;-68
2022/09/24 00:12:53;;;;;;;10.23;7.15;;;;;;;8.62;100.00;92810.75;2121225;27;20035;-68
2022/09/24 00:13:56;;;;;;;11.32;8.35;;;;;;;8.62;100.00;92814.19;2115211;27;20465;-68
2022/09/24 00:14:57;;;;;;;13.35;7.57;;;;;;;8.64;100.00;92811.84;2118143;27;20056;-68
2022/09/24 00:16:02;;;;;;;10.52;7.93;;;;;;;8.62;100.00;92808.09;2117551;27;20028;-68
2022/09/24 00:17:03;;;;;;;10.95;7.20;;;;;;;8.64;100.00;92803.09;2118470;27;20039;-68
2022/09/24 00:18:06;;;;;;;11.38;7.13;;;;;;;8.60;100.00;92805.84;2118688;27;20034;-68
2022/09/24 00:19:08;;;;;;;11.55;8.07;;;;;;;8.62;100.00;92805.44;2118669;27;20034;-68
2022/09/24 00:20:09;;;;;;;8.48;7.57;;;;;;;8.86;100.00;92814.09;2118572;27;20031;-68
2022/09/24 00:21:22;;;;;;;10.95;7.47;;;;;;;8.82;100.00;92814.94;2119196;27;20424;-68
2022/09/24 00:22:23;;;;;;;11.80;7.50;;;;;;;8.81;100.00;92812.66;2117580;27;20144;-68
2022/09/24 00:23:24;;;;;;;11.55;8.00;;;;;;;8.77;100.00;92807.41;2119070;27;20035;-68
2022/09/24 00:27:05;;;;;;;;;;;;;;;8.74;100.00;92808.25;2118821;27;20095;-70
2022/09/24 00:28:06;;;;;;;11.55;7.03;;;;;;;8.75;100.00;92803.66;2116588;27;19975;-69
2022/09/24 00:29:10;;;;;;;13.63;7.40;;;;;;;8.97;100.00;92806.63;2114331;28;20118;-67
2022/09/24 00:30:11;;;;;;;9.60;6.80;;;;;;;8.83;100.00;92803.09;2118434;27;20031;-68
2022/09/24 00:31:12;;;;;;;9.95;7.38;;;;;;;8.81;100.00;92800.09;2117894;27;20092;-68
2022/09/24 00:32:13;;;;;;;10.70;7.07;;;;;;;8.79;100.00;92791.00;2116195;27;20035;-68
2022/09/24 00:33:14;;;;;;;12.43;6.85;;;;;;;8.77;100.00;92782.66;2117898;27;20089;-69
2022/09/24 00:34:16;;;;;;;11.90;7.70;;;;;;;8.69;100.00;92784.75;2117661;27;20035;-68
2022/09/24 00:35:17;;;;;;;14.38;7.03;;;;;;;8.65;100.00;92786.72;2117802;27;20036;-69
2022/09/24 00:36:20;;;;;;;10.95;7.13;;;;;;;8.68;100.00;92793.13;2115709;27;20035;-69
2022/09/24 00:37:21;;;;;;;10.00;6.93;;;;;;;8.71;100.00;92794.97;2117094;27;20391;-68
2022/09/24 00:38:22;;;;;;;13.55;7.72;;;;;;;8.98;100.00;92790.22;2118468;27;20031;-67
2022/09/24 00:39:24;;;;;;;8.20;7.30;;;;;;;8.81;100.00;92786.00;2118435;27;20023;-68
2022/09/24 00:40:34;;;;;;;11.05;7.65;;;;;;;8.83;100.00;92786.38;2117824;27;20030;-68
2022/09/24 00:41:36;;;;;;;10.27;7.55;;;;;;;8.87;100.00;92786.28;2117513;27;20431;-69
2022/09/24 00:42:37;;;;;;;9.45;7.45;;;;;;;8.77;100.00;92782.66;2114354;27;20024;-67
2022/09/24 00:43:38;;;;;;;10.15;7.85;;;;;;;8.75;100.00;92785.75;2117778;27;20082;-68
2022/09/24 00:44:39;;;;;;;10.70;7.38;;;;;;;8.74;100.00;92780.84;2118342;27;20075;-70
2022/09/24 00:45:41;;;;;;;10.65;7.85;;;;;;;8.79;100.00;92780.34;2118389;27;20045;-68
2022/09/24 00:46:43;;;;;;;9.45;7.72;;;;;;;8.80;100.00;92777.28;2117037;27;20373;-66
2022/09/24 00:47:44;;;;;;;10.65;7.80;;;;;;;8.80;100.00;92779.19;2115120;27;20544;-68
2022/09/24 00:48:47;;;;;;;14.60;7.85;;;;;;;8.79;100.00;92773.09;2117967;27;20031;-68
2022/09/24 00:49:49;;;;;;;10.90;7.78;;;;;;;8.76;100.00;92773.91;2119507;27;20132;-68
2022/09/24 00:50:50;;;;;;;10.63;7.95;;;;;;;8.74;100.00;92773.59;2109295;28;20027;-68
2022/09/24 00:51:52;;;;;;;13.00;7.65;;;;;;;8.67;100.00;92780.97;2120140;27;20052;-68
2022/09/24 00:53:02;;;;;;;15.43;8.20;;;;;;;8.64;100.00;92773.78;2115183;27;20051;-68
2022/09/24 00:54:07;;;;;;;10.48;8.43;;;;;;;8.57;100.00;92780.78;2118128;27;20076;-70
2022/09/24 00:55:09;;;;;;;20.58;8.57;;;;;;;8.75;100.00;92779.69;2117375;27;20079;-71
2022/09/24 00:56:14;;;;;;;9.85;8.00;;;;;;;8.79;100.00;92777.69;2118069;27;20038;-68
2022/09/24 00:57:15;;;;;;;12.80;7.72;;;;;;;8.75;100.00;92777.75;2117695;27;20107;-68
2022/09/24 00:58:17;;;;;;;11.35;7.82;;;;;;;8.73;100.00;92777.41;2113961;28;20073;-67
2022/09/24 00:59:21;;;;;;;12.00;7.50;;;;;;;8.68;100.00;92775.22;2117284;27;20034;-68
2022/09/24 01:00:23;;;;;;;14.27;7.70;;;;;;;8.69;100.00;92778.63;2117316;27;20028;-68
2022/09/24 01:01:24;;;;;;;14.85;8.05;;;;;;;8.66;100.00;92772.22;2118262;27;20027;-67
2022/09/24 01:02:25;;;;;;;11.27;8.32;;;;;;;8.68;100.00;92769.16;2120891;27;20099;-67
2022/09/24 01:03:27;;;;;;;10.25;7.47;;;;;;;8.70;100.00;92766.84;2118277;27;20477;-68
2022/09/24 01:04:28;;;;;;;9.32;7.82;;;;;;;8.73;100.00;92764.06;2118188;27;20054;-69
2022/09/24 01:05:29;;;;;;;11.05;7.82;;;;;;;8.79;100.00;92759.78;2117730;27;20023;-67
2022/09/24 01:06:30;;;;;;;9.45;7.47;;;;;;;8.81;100.00;92757.44;2118270;27;20138;-67
2022/09/24 01:07:31;;;;;;;14.68;7.97;;;;;;;8.76;100.00;92755.28;2117408;27;20035;-68
2022/09/24 01:08:33;;;;;;;10.35;7.28;;;;;;;8.78;100.00;92760.19;2118800;27;20019;-68
2022/09/24 01:09:33;;;;;;;16.80;8.23;;;;;;;8.83;100.00;92751.72;2121431;27;20023;-68
2022/09/24 01:11:12;;;;;;;11.52;7.75;;;;;;;8.86;100.00;92747.47;2118089;27;20101;-69
2022/09/24 01:12:22;;;;;;;15.68;7.68;;;;;;;8.74;100.00;92752.28;2097565;28;20810;-70
2022/09/24 01:13:50;;;;;;;9.15;7.18;;;;;;;8.76;100.00;92749.94;2121014;27;20027;-68
2022/09/24 01:15:10;;;;;;;9.93;7.47;;;;;;;8.67;100.00;92752.41;2115847;27;20070;-67
2022/09/24 01:16:42;;;;;;;14.13;7.65;;;;;;;8.59;100.00;92745.72;2110580;28;21914;-69
2022/09/24 01:18:09;;;;;;;10.18;6.93;;;;;;;8.61;100.00;92742.66;2110191;28;20042;-69
2022/09/24 01:19:31;;;;;;;8.32;7.28;;;;;;;8.61;100.00;92748.75;2109391;28;20027;-68
2022/09/24 01:21:06;;;;;;;11.60;7.07;;;;;;;8.51;100.00;92753.09;2109679;28;20034;-68
2022/09/24 01:22:32;;;;;;;10.27;7.18;;;;;;;8.53;100.00;92742.06;2107544;28;20058;-68
2022/09/24 01:23:34;;;;;;;8.73;6.95;;;;;;;8.58;100.00;92744.22;2107094;28;20016;-69
2022/09/24 01:25:04;;;;;;;16.73;7.28;;;;;;;8.60;100.00;92743.81;2108448;28;20491;-68
2022/09/24 01:26:32;;;;;;;12.98;7.28;;;;;;;8.60;100.00;92746.47;2116515;27;20027;-68
2022/09/24 01:28:08;;;;;;;10.98;7.15;;;;;;;8.60;100.00;92741.16;2110773;27;20028;-70
2022/09/24 01:29:30;;;;;;;11.25;7.28;;;;;;;8.59;100.00;92745.72;2080808;28;20084;-68
2022/09/24 01:30:33;;;;;;;10.13;7.20;;;;;;;8.57;100.00;92740.81;2109763;28;20024;-68
2022/09/24 01:31:45;;;;;;;12.63;7.10;;;;;;;8.61;100.00;92738.09;2109131;28;20020;-71
2022/09/24 01:32:52;;;;;;;10.13;6.78;;;;;;;8.62;100.00;92733.50;2109205;28;20369;-68
2022/09/24 01:33:56;;;;;;;10.00;6.78;;;;;;;8.69;100.00;92736.00;2108824;28;20028;-68
2022/09/24 01:35:04;;;;;;;10.45;7.03;;;;;;;8.65;100.00;92735.31;2109027;28;20028;-68
2022/09/24 01:36:08;;;;;;;13.75;7.10;;;;;;;8.65;100.00;92738.78;2109411;28;20035;-68
2022/09/24 01:37:13;;;;;;;12.35;7.40;;;;;;;8.67;100.00;92733.75;2108981;28;20024;-68
2022/09/24 01:38:18;;;;;;;10.98;6.82;;;;;;;8.69;100.00;92733.34;2109094;28;20107;-68
2022/09/24 01:39:20;;;;;;;11.57;6.95;;;;;;;8.69;100.00;92731.47;2105616;28;20039;-67
2022/09/24 01:40:25;;;;;;;9.98;6.68;;;;;;;8.69;100.00;92738.66;2108842;28;20024;-70
2022/09/24 01:41:27;;;;;;;12.52;6.93;;;;;;;8.70;100.00;92734.88;2109568;28;20034;-68
2022/09/24 01:42:30;;;;;;;12.80;7.88;;;;;;;8.68;100.00;92732.59;2108816;28;20028;-68
2022/09/24 01:43:31;;;;;;;13.85;7.35;;;;;;;8.68;100.00;92734.50;2108245;28;20035;-70
2022/09/24 01:44:34;;;;;;;10.10;7.35;;;;;;;8.71;100.00;92741.69;2108606;28;20028;-68
2022/09/24 01:45:37;;;;;;;13.25;7.53;;;;;;;8.69;100.00;92739.44;2109503;28;20369;-68
2022/09/24 01:46:40;;;;;;;9.52;6.72;;;;;;;8.69;100.00;92744.78;2109468;28;20031;-68
2022/09/24 01:47:41;;;;;;;8.48;6.75;;;;;;;8.67;100.00;92757.00;2109425;28;20024;-68
2022/09/24 01:48:42;;;;;;;11.48;6.82;;;;;;;8.68;100.00;92750.50;2108899;28;20058;-68
2022/09/24 01:49:43;;;;;;;13.98;7.22;;;;;;;8.68;100.00;92755.81;2106476;28;20024;-68
2022/09/24 01:50:53;;;;;;;14.02;7.07;;;;;;;8.69;100.00;92755.44;2109498;28;20024;-70
2022/09/24 01:52:00;;;;;;;9.02;7.20;;;;;;;8.70;100.00;92762.25;2109386;28;20024;-68
2022/09/24 01:53:06;;;;;;;10.18;7.03;;;;;;;8.64;100.00;92752.47;2112762;28;20081;-67
2022/09/24 01:54:15;;;;;;;13.23;7.35;;;;;;;8.60;100.00;92746.47;2110400;28;20040;-68
2022/09/24 01:55:23;;;;;;;11.68;6.82;;;;;;;8.64;100.00;92739.16;2106694;28;20032;-69
2022/09/24 01:56:32;;;;;;;11.30;7.40;;;;;;;8.68;100.00;92739.84;2109824;28;20032;-68
2022/09/24 01:57:40;;;;;;;9.05;7.13;;;;;;;8.66;100.00;92726.19;2109354;28;20023;-68
2022/09/24 01:58:48;;;;;;;10.80;7.72;;;;;;;8.65;100.00;92728.09;2105164;28;20530;-70
2022/09/24 02:00:04;;;;;;;9.13;6.53;;;;;;;8.65;100.00;92719.34;2107796;28;20027;-68
2022/09/24 02:01:14;;;;;;;11.02;7.38;;;;;;;8.65;100.00;92724.66;2109413;28;20376;-68
2022/09/24 02:02:26;;;;;;;8.73;6.97;;;;;;;8.67;100.00;92720.44;2111354;28;20065;-69
2022/09/24 02:03:35;;;;;;;9.30;7.13;;;;;;;8.71;100.00;92723.03;2109450;28;20449;-69
2022/09/24 02:04:45;;;;;;;10.07;7.13;;;;;;;8.71;100.00;92728.38;2109264;28;20030;-68
2022/09/24 02:05:52;;;;;;;12.00;7.38;;;;;;;8.74;100.00;92724.88;2109097;28;20469;-67
2022/09/24 02:07:00;;;;;;;9.55;6.93;;;;;;;8.68;100.00;92727.25;2110154;28;20051;-68
2022/09/24 02:08:17;;;;;;;7.80;7.00;;;;;;;8.77;100.00;92732.03;2109692;28;20031;-69
2022/09/24 02:09:39;;;;;;;12.35;7.03;;;;;;;8.80;100.00;92744.53;2112847;28;20108;-68
2022/09/24 02:11:05;;;;;;;8.25;7.40;;;;;;;8.84;100.00;92729.22;2111451;28;20066;-68
2022/09/24 02:12:16;;;;;;;10.43;6.50;;;;;;;8.83;100.00;92733.06;2108780;28;20084;-68
2022/09/24 02:13:20;;;;;;;11.45;7.40;;;;;;;8.78;100.00;92736.97;2111224;28;20119;-69
2022/09/24 02:15:40;;;;;;;;;;;;;;;8.76;100.00;92741.94;2145463;27;20554;-67
2022/09/24 02:16:50;;;;;;;9.93;7.05;;;;;;;8.76;100.00;92736.63;2136665;27;19914;-68
2022/09/24 02:17:56;;;;;;;9.68;6.88;;;;;;;8.89;100.00;92731.41;2133152;27;20034;-67
2022/09/24 02:19:01;;;;;;;10.85;7.25;;;;;;;8.80;100.00;92728.56;2133391;27;20045;-69
2022/09/24 02:20:08;;;;;;;13.15;7.47;;;;;;;8.82;100.00;92732.31;2133743;27;20019;-70
2022/09/24 02:21:13;;;;;;;11.38;7.28;;;;;;;8.81;100.00;92730.03;2133933;27;20034;-66
2022/09/24 02:22:16;;;;;;;9.80;7.47;;;;;;;8.76;100.00;92735.88;2133812;27;20029;-68
2022/09/24 02:23:19;;;;;;;9.98;7.60;;;;;;;8.75;100.00;92732.47;2132906;27;20039;-67
2022/09/24 02:24:24;;;;;;;11.45;7.10;;;;;;;8.77;100.00;92735.44;2133455;27;20022;-67
2022/09/24 02:25:41;;;;;;;9.45;7.15;;;;;;;8.75;100.00;92734.38;2133475;27;20023;-67
2022/09/24 02:26:42;;;;;;;9.10;6.72;;;;;;;8.71;100.00;92733.69;2138014;27;20069;-68
2022/09/24 02:27:43;;;;;;;10.35;7.30;;;;;;;8.75;100.00;92737.03;2137917;27;20031;-67
2022/09/24 02:28:45;;;;;;;11.13;7.60;;;;;;;8.73;100.00;92732.09;2131436;27;20386;-68
2022/09/24 02:29:46;;;;;;;9.13;7.18;;;;;;;8.69;100.00;92733.34;2133309;27;20050;-69
2022/09/24 02:31:01;;;;;;;10.98;7.30;;;;;;;8.69;100.00;92726.13;2133613;27;20212;-68
2022/09/24 02:32:05;;;;;;;12.15;6.78;;;;;;;8.68;100.00;92718.53;2124301;27;20476;-70
2022/09/24 02:34:19;;;;;;;9.32;7.13;;;;;;;8.68;100.00;92723.84;2124497;27;20039;-70
2022/09/24 02:34:37;;;;;;;9.23;7.30;;;;;;;8.69;100.00;92725.34;2133585;27;20054;-68
2022/09/24 02:35:39;;;;;;;16.42;7.72;;;;;;;8.74;100.00;92730.22;2133600;27;20026;-68
2022/09/24 02:36:40;;;;;;;8.77;7.15;;;;;;;8.78;100.00;92718.31;2134080;27;20032;-67
2022/09/24 02:37:43;;;;;;;9.73;7.47;;;;;;;8.80;100.00;92717.91;2133513;27;20027;-67
2022/09/24 02:38:45;;;;;;;9.60;7.18;;;;;;;8.99;100.00;92716.34;2133440;27;20031;-68
2022/09/24 02:39:47;;;;;;;8.70;7.30;;;;;;;8.94;100.00;92711.50;2133662;27;20030;-71
2022/09/24 02:40:49;;;;;;;8.43;7.28;;;;;;;8.89;100.00;92715.41;2133673;27;20058;-69
2022/09/24 02:41:57;;;;;;;11.60;7.65;;;;;;;8.81;100.00;92708.72;2134998;27;20060;-69
2022/09/24 02:42:57;;;;;;;9.50;7.45;;;;;;;8.75;100.00;92705.06;2133132;27;20041;-70
2022/09/24 02:43:58;;;;;;;8.38;7.35;;;;;;;8.78;100.00;92706.88;2133489;27;20053;-70
2022/09/24 02:45:01;;;;;;;7.18;6.45;;;;;;;8.76;100.00;92701.97;2133497;27;20038;-69
2022/09/24 02:46:02;;;;;;;10.43;7.35;;;;;;;8.77;100.00;92700.81;2133563;27;20019;-69
2022/09/24 02:47:03;;;;;;;9.77;7.50;;;;;;;8.77;100.00;92694.72;2133848;27;20026;-68
2022/09/24 02:48:04;;;;;;;9.02;7.47;;;;;;;8.83;100.00;92695.75;2123867;27;20138;-68
2022/09/24 02:49:05;;;;;;;10.73;6.72;;;;;;;8.79;100.00;92705.75;2124212;27;20020;-68
2022/09/24 02:50:06;;;;;;;9.63;7.22;;;;;;;8.76;100.00;92706.56;2133144;27;20172;-68
2022/09/24 02:51:07;;;;;;;12.45;7.60;;;;;;;8.75;100.00;92699.72;2133482;27;20516;-66
2022/09/24 02:52:09;;;;;;;7.82;7.03;;;;;;;8.73;100.00;92704.72;2132599;27;20035;-69
2022/09/24 02:53:10;;;;;;;8.40;7.20;;;;;;;8.72;100.00;92705.88;2136155;27;20073;-66
2022/09/24 02:54:11;;;;;;;9.57;7.30;;;;;;;8.74;100.00;92701.66;2135282;27;20029;-68
2022/09/24 02:55:11;;;;;;;7.50;6.72;;;;;;;8.76;100.00;92701.22;2133114;27;20360;-66
2022/09/24 02:56:13;;;;;;;10.10;6.75;;;;;;;8.74;100.00;92693.66;2133555;27;20030;-68
2022/09/24 02:57:14;;;;;;;9.98;7.40;;;;;;;8.75;100.00;92697.06;2133195;27;20026;-65
2022/09/24 02:58:15;;;;;;;10.60;7.20;;;;;;;8.71;100.00;92693.72;2136014;27;20371;-68
2022/09/24 02:59:16;;;;;;;10.82;6.93;;;;;;;8.76;100.00;92695.91;2133222;27;20041;-65
2022/09/24 03:00:19;;;;;;;10.25;6.78;;;;;;;8.80;100.00;92694.66;2132893;27;20023;-67
2022/09/24 03:01:22;;;;;;;8.98;7.60;;;;;;;8.78;100.00;92691.66;2123866;27;20063;-66
2022/09/24 03:02:23;;;;;;;11.10;7.18;;;;;;;8.87;100.00;92696.44;2128244;27;20027;-68
2022/09/24 03:03:24;;;;;;;10.68;6.82;;;;;;;8.82;100.00;92691.56;2137099;27;20071;-66
2022/09/24 03:04:28;;;;;;;7.68;6.60;;;;;;;8.78;100.00;92689.00;2133237;27;20058;-66
2022/09/24 03:05:29;;;;;;;7.70;6.90;;;;;;;8.75;100.00;92689.06;2133445;27;20022;-66
2022/09/24 03:06:30;;;;;;;7.68;6.43;;;;;;;8.83;100.00;92690.44;2124117;27;20031;-65
2022/09/24 03:07:31;;;;;;;9.45;6.97;;;;;;;8.92;100.00;92693.25;2119448;27;20073;-65
2022/09/24 03:08:34;;;;;;;12.02;6.78;;;;;;;8.87;100.00;92695.66;2136874;27;20367;-67
2022/09/24 03:09:34;;;;;;;8.23;7.30;;;;;;;8.81;100.00;92698.81;2137006;27;20360;-65
2022/09/24 03:10:35;;;;;;;8.85;7.50;;;;;;;8.85;100.00;92695.34;2133320;27;20050;-67
2022/09/24 03:11:36;;;;;;;8.15;6.82;;;;;;;8.87;100.00;92690.31;2133263;27;20026;-66
2022/09/24 03:12:38;;;;;;;13.20;7.22;;;;;;;8.83;100.00;92696.50;2132616;27;20031;-66
2022/09/24 03:13:39;;;;;;;8.93;6.57;;;;;;;8.82;100.00;92696.91;2134522;27;20158;-68
2022/09/24 03:14:40;;;;;;;9.80;6.40;;;;;;;8.84;100.00;92686.59;2123723;27;20063;-66
2022/09/24 03:15:41;;;;;;;8.45;6.70;;;;;;;8.83;100.00;92696.50;2124199;27;20457;-66
2022/09/24 03:16:42;;;;;;;9.75;6.72;;;;;;;8.80;100.00;92691.25;2133356;27;20449;-66
2022/09/24 03:17:43;;;;;;;8.00;6.75;;;;;;;8.75;100.00;92695.16;2132649;27;20053;-66
2022/09/24 03:18:46;;;;;;;14.20;8.13;;;;;;;8.76;100.00;92701.97;2136121;27;20023;-67
2022/09/24 03:19:47;;;;;;;8.95;6.57;;;;;;;8.81;100.00;92698.06;2133162;27;20046;-67
2022/09/24 03:21:02;;;;;;;9.30;7.18;;;;;;;8.80;100.00;92696.56;2133324;27;20023;-66
2022/09/24 03:22:03;;;;;;;12.90;7.68;;;;;;;8.80;100.00;92694.66;2133244;27;20033;-65
2022/09/24 03:23:04;;;;;;;8.82;7.57;;;;;;;8.98;100.00;92704.91;2133054;27;20018;-67
2022/09/24 03:24:06;;;;;;;9.75;7.63;;;;;;;8.97;100.00;92697.34;2134431;27;20064;-66
2022/09/24 03:25:07;;;;;;;9.27;7.25;;;;;;;8.96;100.00;92693.94;2132553;27;20113;-67
2022/09/24 03:26:09;;;;;;;10.90;7.30;;;;;;;8.91;100.00;92704.31;2132871;27;20079;-67
2022/09/24 03:27:10;;;;;;;11.23;7.82;;;;;;;8.88;100.00;92697.19;2126941;27;20031;-69
2022/09/24 03:28:11;;;;;;;7.95;7.15;;;;;;;8.85;100.00;92703.31;2125618;27;20046;-68
2022/09/24 03:29:12;;;;;;;8.98;7.53;;;;;;;8.82;100.00;92691.56;2128586;27;20031;-67
2022/09/24 03:31:33;;;;;;;8.32;7.13;;;;;;;8.86;100.00;92692.25;2127016;27;20030;-67
2022/09/24 03:32:34;;;;;;;8.52;7.30;;;;;;;8.88;100.00;92686.50;2127028;27;20057;-67
2022/09/24 03:33:40;;;;;;;7.80;7.03;;;;;;;8.85;100.00;92688.09;2127450;27;20064;-67
2022/09/24 03:34:41;;;;;;;11.98;6.95;;;;;;;8.82;100.00;92694.22;2129291;27;20030;-66
2022/09/24 03:35:42;;;;;;;10.30;7.90;;;;;;;8.82;100.00;92691.56;2127422;27;20026;-66
2022/09/24 03:36:43;;;;;;;9.90;7.18;;;;;;;8.83;100.00;92693.09;2127494;27;20030;-67
2022/09/24 03:37:45;;;;;;;10.05;7.70;;;;;;;8.81;100.00;92688.16;2127013;27;20854;-67
2022/09/24 03:38:47;;;;;;;8.60;7.38;;;;;;;8.82;100.00;92692.34;2127075;27;20030;-68
2022/09/24 03:39:48;;;;;;;10.98;7.85;;;;;;;8.80;100.00;92691.25;2127399;27;20022;-67
2022/09/24 03:40:49;;;;;;;9.27;7.88;;;;;;;8.87;100.00;92679.66;2127384;27;20027;-66
2022/09/24 03:41:50;;;;;;;12.98;7.65;;;;;;;8.88;100.00;92684.59;2127342;27;20114;-66
2022/09/24 03:42:52;;;;;;;10.52;7.88;;;;;;;8.88;100.00;92681.94;2127282;27;20037;-66
2022/09/24 03:43:54;;;;;;;8.82;7.57;;;;;;;8.90;100.00;92684.91;2117654;27;20040;-66
2022/09/24 03:44:55;;;;;;;8.60;7.32;;;;;;;8.85;100.00;92682.75;2108637;28;20039;-66
2022/09/24 03:45:56;;;;;;;9.95;7.05;;;;;;;8.85;100.00;92680.09;2121720;27;20038;-65
2022/09/24 03:46:57;;;;;;;9.95;7.38;;;;;;;8.80;100.00;92676.00;2127432;27;20031;-67
2022/09/24 03:47:58;;;;;;;13.35;7.93;;;;;;;8.80;100.00;92684.00;2127433;27;20022;-69
2022/09/24 03:48:59;;;;;;;10.52;8.05;;;;;;;8.82;100.00;92679.03;2127381;27;20072;-67
2022/09/24 03:50:01;;;;;;;12.02;7.25;;;;;;;8.81;100.00;92669.50;2128015;27;20069;-67
2022/09/24 03:51:11;;;;;;;8.40;7.60;;;;;;;9.06;100.00;92668.19;2127041;27;20033;-68
2022/09/24 03:52:12;;;;;;;10.07;7.68;;;;;;;9.00;100.00;92672.50;2127311;27;20033;-67
2022/09/24 03:53:13;;;;;;;11.20;7.68;;;;;;;8.96;100.00;92669.94;2127160;27;20042;-68
2022/09/24 03:54:15;;;;;;;10.93;7.45;;;;;;;8.93;100.00;92670.78;2127191;27;20100;-66
2022/09/24 03:55:16;;;;;;;8.40;7.60;;;;;;;8.87;100.00;92669.78;2128938;27;20130;-67
2022/09/24 03:56:17;;;;;;;9.00;8.00;;;;;;;8.90;100.00;92666.25;2128602;27;20019;-66
2022/09/24 03:57:18;;;;;;;10.15;7.82;;;;;;;8.89;100.00;92667.44;2127060;27;20053;-66
2022/09/24 03:58:19;;;;;;;10.85;8.13;;;;;;;8.86;100.00;92673.59;2118250;27;20019;-67
2022/09/24 03:59:20;;;;;;;10.63;7.50;;;;;;;8.86;100.00;92665.59;2118243;27;20139;-66
2022/09/24 04:00:22;;;;;;;13.35;8.02;;;;;;;8.82;100.00;92676.34;2129186;27;20027;-66
2022/09/24 04:01:23;;;;;;;9.80;7.85;;;;;;;8.90;100.00;92671.59;2127224;27;20022;-69
2022/09/24 04:02:24;;;;;;;10.40;7.47;;;;;;;8.89;100.00;92664.03;2128822;27;20334;-67
2022/09/24 04:03:25;;;;;;;9.82;7.63;;;;;;;8.89;100.00;92666.69;2126629;27;20511;-69
2022/09/24 04:04:26;;;;;;;8.35;7.55;;;;;;;8.92;100.00;92663.94;2117725;27;20616;-68
2022/09/24 04:05:29;;;;;;;8.45;7.35;;;;;;;8.89;100.00;92664.03;2114724;27;20062;-69
2022/09/24 04:06:30;;;;;;;11.65;7.25;;;;;;;8.91;100.00;92664.34;2131317;27;20045;-68
2022/09/24 04:07:31;;;;;;;9.45;7.65;;;;;;;8.94;100.00;92666.19;2127310;27;20027;-66
2022/09/24 04:08:32;;;;;;;9.85;7.43;;;;;;;9.15;100.00;92656.94;2118666;27;20026;-66
2022/09/24 04:09:33;;;;;;;7.68;6.72;;;;;;;9.04;100.00;92659.84;2121704;27;20023;-67
2022/09/24 04:10:34;;;;;;;11.32;7.65;;;;;;;8.98;100.00;92656.19;2126924;27;20026;-66
2022/09/24 04:11:35;;;;;;;10.65;7.88;;;;;;;8.91;100.00;92665.13;2127263;27;20026;-69
2022/09/24 04:12:36;;;;;;;8.82;7.93;;;;;;;8.91;100.00;92662.44;2126986;27;20102;-69
2022/09/24 04:13:37;;;;;;;8.23;7.40;;;;;;;8.94;100.00;92658.94;2130161;27;20113;-69
2022/09/24 04:14:38;;;;;;;11.38;7.78;;;;;;;8.88;100.00;92651.88;2127006;27;20023;-67
2022/09/24 04:15:39;;;;;;;9.57;7.50;;;;;;;8.92;100.00;92661.28;2126034;27;20176;-69
2022/09/24 04:16:40;;;;;;;9.65;7.32;;;;;;;8.94;100.00;92655.53;2129306;27;20036;-70
2022/09/24 04:17:41;;;;;;;9.23;6.70;;;;;;;8.92;100.00;92660.53;2127142;27;20046;-68
2022/09/24 04:18:42;;;;;;;10.35;7.40;;;;;;;8.86;100.00;92665.59;2127051;27;20022;-68
2022/09/24 04:19:43;;;;;;;8.80;6.90;;;;;;;8.92;100.00;92657.88;2127114;27;20022;-66
2022/09/24 04:20:45;;;;;;;11.57;6.97;;;;;;;8.91;100.00;92659.78;2117141;27;20030;-67
2022/09/24 04:21:46;;;;;;;9.55;7.38;;;;;;;8.94;100.00;92655.53;2119522;27;20110;-68
2022/09/24 04:22:52;;;;;;;9.43;8.50;;;;;;;8.82;100.00;92664.91;2128759;27;20030;-68
2022/09/24 04:23:53;;;;;;;15.57;7.55;;;;;;;8.86;100.00;92664.84;2127110;27;20385;-68
2022/09/24 04:24:57;;;;;;;11.57;8.30;;;;;;;8.87;100.00;92658.34;2117831;27;20023;-67
2022/09/24 04:26:01;;;;;;;9.55;7.72;;;;;;;8.82;100.00;92657.69;2118018;27;20077;-68
2022/09/24 04:27:02;;;;;;;9.65;7.30;;;;;;;8.84;100.00;92654.59;2126429;27;20219;-68
2022/09/24 04:28:05;;;;;;;18.13;8.05;;;;;;;8.83;100.00;92656.53;2128831;27;20031;-67
2022/09/24 04:29:06;;;;;;;9.90;7.95;;;;;;;8.81;100.00;92650.09;2127076;27;20031;-67
2022/09/24 04:30:09;;;;;;;8.60;7.38;;;;;;;8.88;100.00;92655.28;2127043;27;20027;-68
2022/09/24 04:31:10;;;;;;;10.77;7.25;;;;;;;8.86;100.00;92656.84;2126605;27;20035;-69
2022/09/24 04:32:11;;;;;;;9.32;7.28;;;;;;;8.87;100.00;92664.44;2131017;27;20014;-67
2022/09/24 04:33:12;;;;;;;10.15;7.55;;;;;;;8.86;100.00;92662.94;2120214;27;20452;-67
2022/09/24 04:34:13;;;;;;;8.63;7.50;;;;;;;8.86;100.00;92667.50;2117900;27;20529;-67
2022/09/24 04:35:14;;;;;;;12.93;7.20;;;;;;;8.86;100.00;92657.59;2126790;27;20034;-67
2022/09/24 04:36:16;;;;;;;10.48;7.30;;;;;;;8.85;100.00;92668.69;2128971;27;20037;-69
2022/09/24 04:37:17;;;;;;;10.20;7.70;;;;;;;9.08;100.00;92669.25;2126485;27;20027;-67
2022/09/24 04:38:20;;;;;;;8.85;6.93;;;;;;;9.01;100.00;92661.44;2127491;27;20041;-67
2022/09/24 04:39:25;;;;;;;8.23;7.18;;;;;;;8.95;100.00;92663.09;2126407;27;20022;-66
2022/09/24 04:40:27;;;;;;;12.95;7.45;;;;;;;8.93;100.00;92668.09;2126889;27;20045;-67
2022/09/24 04:41:28;;;;;;;7.60;6.70;;;;;;;8.95;100.00;92663.09;2126686;27;20018;-66
2022/09/24 04:42:29;;;;;;;8.70;6.43;;;;;;;9.01;100.00;92669.44;2127039;27;20019;-67
2022/09/24 04:43:32;;;;;;;9.25;6.68;;;;;;;9.00;100.00;92667.94;2130844;27;20018;-67
2022/09/24 04:44:32;;;;;;;10.07;6.68;;;;;;;9.04;100.00;92668.63;2130524;27;20030;-67
2022/09/24 04:45:37;;;;;;;8.13;5.85;;;;;;;9.11;100.00;92673.03;2122752;27;20046;-66
2022/09/24 04:46:39;;;;;;;8.15;5.35;;;;;;;9.15;100.00;92668.34;2126724;27;20076;-69
2022/09/24 04:47:40;;;;;;;6.40;5.25;;;;;;;9.15;100.00;92660.38;2126918;27;20026;-66
2022/09/24 04:48:43;;;;;;;6.90;5.63;;;;;;;9.20;100.00;92667.84;2130721;27;20371;-66
2022/09/24 04:49:44;;;;;;;7.90;5.28;;;;;;;9.16;100.00;92664.53;2129255;27;20034;-67
2022/09/24 04:50:45;;;;;;;9.07;5.93;;;;;;;9.14;100.00;92668.78;2126443;27;20103;-70
2022/09/24 04:51:46;;;;;;;7.25;5.97;;;;;;;9.17;100.00;92665.25;2126364;27;20019;-66
2022/09/24 04:52:47;;;;;;;5.55;4.60;;;;;;;9.32;100.00;92671.78;2126424;27;20079;-68
2022/09/24 04:53:49;;;;;;;7.55;4.45;;;;;;;9.30;100.00;92666.84;2128824;27;20392;-67
2022/09/24 04:54:50;;;;;;;6.18;4.50;;;;;;;9.31;100.00;92672.94;2127899;27;20409;-66
2022/09/24 04:55:51;;;;;;;8.13;4.82;;;;;;;9.28;100.00;92663.84;2129751;27;20018;-66
2022/09/24 04:56:52;;;;;;;6.57;4.10;;;;;;;9.26;100.00;92665.44;2123023;27;20038;-66
2022/09/24 04:57:57;;;;;;;6.43;4.20;;;;;;;9.28;100.00;92663.84;2127238;27;20039;-68
2022/09/24 04:58:58;;;;;;;4.88;3.88;;;;;;;9.32;100.00;92669.09;2130629;27;20460;-69
2022/09/24 04:59:59;;;;;;;5.22;3.95;;;;;;;9.26;100.00;92660.88;2127038;27;20110;-66
2022/09/24 05:01:02;;;;;;;5.35;4.80;;;;;;;9.25;100.00;92664.69;2126713;27;20136;-66
2022/09/24 05:02:05;;;;;;;8.65;3.88;;;;;;;9.26;100.00;92668.09;2126902;27;20026;-67
2022/09/24 05:03:06;;;;;;;6.43;3.80;;;;;;;9.29;100.00;92664.59;2129714;27;20492;-69
2022/09/24 05:04:07;;;;;;;6.10;5.18;;;;;;;9.30;100.00;92664.19;2126841;27;20075;-67
2022/09/24 05:05:10;;;;;;;5.57;4.25;;;;;;;9.27;100.00;92664.28;2129913;27;20034;-66